createdAt,value
2023-04-24T00:01:37.960Z,94.90
2023-04-24T00:06:43.753Z,94.80
2023-04-24T00:11:45.649Z,95.10
2023-04-24T00:16:47.527Z,95.00
2023-04-24T00:21:50.997Z,95.00
2023-04-24T00:26:52.999Z,95.20
2023-04-24T00:31:54.888Z,95.50
2023-04-24T00:36:56.744Z,95.50
2023-04-24T00:41:58.958Z,95.30
2023-04-24T00:47:01.103Z,95.70
2023-04-24T00:52:03.159Z,96.50
2023-04-24T00:57:05.277Z,96.70
2023-04-24T01:02:07.130Z,97.20
2023-04-24T01:07:11.658Z,97.00
2023-04-24T01:12:13.511Z,97.00
2023-04-24T01:17:16.239Z,97.20
2023-04-24T01:22:21.795Z,97.10
2023-04-24T01:27:24.000Z,97.00
2023-04-24T01:32:26.561Z,97.50
2023-04-24T01:37:28.575Z,97.90
2023-04-24T01:42:30.777Z,98.60
2023-04-24T01:47:33.100Z,98.50
2023-04-24T01:52:36.232Z,98.70
2023-04-24T01:57:38.116Z,99.20
2023-04-24T02:02:45.610Z,99.40
2023-04-24T02:07:49.316Z,99.10
2023-04-24T02:12:51.096Z,99.20
2023-04-24T02:17:53.103Z,99.40
2023-04-24T02:22:54.973Z,99.70
2023-04-24T02:27:57.072Z,99.90
2023-04-24T02:32:58.894Z,99.60
2023-04-24T02:38:00.673Z,99.50
2023-04-24T02:43:02.469Z,99.20
2023-04-24T02:48:04.306Z,98.80
2023-04-24T02:53:06.162Z,98.50
2023-04-24T02:58:07.989Z,98.30
2023-04-24T03:03:10.561Z,99.80
2023-04-24T03:08:12.540Z,99.90
2023-04-24T03:13:23.696Z,99.90
2023-04-24T03:18:26.403Z,99.90
2023-04-24T03:23:29.420Z,99.90
2023-04-24T03:28:31.649Z,99.90
2023-04-24T03:33:33.480Z,99.90
2023-04-24T03:38:35.297Z,99.90
2023-04-24T03:43:37.154Z,99.90
2023-04-24T03:48:39.186Z,99.90
2023-04-24T03:53:41.292Z,99.90
2023-04-24T03:58:43.659Z,99.90
2023-04-24T04:03:45.721Z,99.90
2023-04-24T04:08:47.726Z,99.90
2023-04-24T04:13:49.590Z,99.90
2023-04-24T04:18:51.411Z,99.90
2023-04-24T04:23:53.211Z,99.90
2023-04-24T04:28:55.247Z,99.90
2023-04-24T04:33:57.271Z,99.90
2023-04-24T04:39:00.404Z,99.90
2023-04-24T04:44:05.460Z,99.90
2023-04-24T04:49:07.267Z,99.90
2023-04-24T04:54:09.118Z,99.90
2023-04-24T04:59:12.031Z,99.90
2023-04-24T05:04:14.027Z,99.90
2023-04-24T05:09:16.050Z,99.90
2023-04-24T05:14:18.918Z,99.90
2023-04-24T05:19:20.735Z,99.90
2023-04-24T05:24:22.548Z,99.90
2023-04-24T05:29:27.679Z,99.90
2023-04-24T05:34:29.502Z,99.90
2023-04-24T05:39:31.303Z,99.90
2023-04-24T05:44:33.116Z,98.70
2023-04-24T05:49:35.108Z,97.80
2023-04-24T05:54:36.962Z,96.70
2023-04-24T05:59:41.653Z,95.80
2023-04-24T06:04:43.773Z,94.50
2023-04-24T06:09:45.730Z,94.40
2023-04-24T06:14:47.584Z,94.10
2023-04-24T06:19:49.470Z,93.80
2023-04-24T06:24:51.247Z,94.20
2023-04-24T06:29:55.589Z,94.10
2023-04-24T06:34:59.475Z,94.20
2023-04-24T06:40:01.433Z,94.60
2023-04-24T06:45:03.635Z,94.90
2023-04-24T06:50:06.241Z,95.70
2023-04-24T06:55:08.892Z,95.10
2023-04-24T07:00:11.387Z,94.90
2023-04-24T07:05:13.778Z,94.00
2023-04-24T07:10:15.587Z,93.40
2023-04-24T07:15:17.883Z,92.70
2023-04-24T07:20:19.777Z,92.60
2023-04-24T07:25:21.603Z,92.60
2023-04-24T07:30:23.995Z,91.90
2023-04-24T07:35:27.023Z,91.30
2023-04-24T07:40:28.895Z,91.20
2023-04-24T07:45:32.215Z,89.80
2023-04-24T07:50:34.110Z,88.00
2023-04-24T07:55:35.944Z,87.80
2023-04-24T08:00:37.848Z,88.90
2023-04-24T08:05:41.104Z,86.70
2023-04-24T08:10:43.043Z,86.30
2023-04-24T08:15:44.988Z,86.70
2023-04-24T08:20:46.853Z,89.10
2023-04-24T08:25:49.602Z,87.60
2023-04-24T08:30:55.841Z,88.30
2023-04-24T08:35:57.779Z,90.00
2023-04-24T08:41:00.516Z,90.60
2023-04-24T08:51:08.279Z,91.30
2023-04-24T08:56:10.378Z,91.50
2023-04-24T09:01:12.521Z,91.20
2023-04-24T09:06:14.475Z,91.20
2023-04-24T09:11:16.515Z,91.50
2023-04-24T09:16:18.854Z,91.90
2023-04-24T09:21:23.327Z,92.20
2023-04-24T09:26:25.408Z,92.80
2023-04-24T09:31:28.850Z,93.10
2023-04-24T09:36:35.533Z,93.80
2023-04-24T09:42:04.666Z,94.20
2023-04-24T09:47:09.908Z,94.40
2023-04-24T09:52:12.339Z,94.90
2023-04-24T09:57:15.728Z,95.40
2023-04-24T10:02:21.432Z,96.90
2023-04-24T10:07:24.093Z,99.00
2023-04-24T10:12:26.253Z,99.90
2023-04-24T10:17:28.976Z,99.90
2023-04-24T10:22:31.326Z,99.90
2023-04-24T10:27:33.218Z,99.90
2023-04-24T10:32:35.243Z,99.90
2023-04-24T10:37:43.405Z,99.90
2023-04-24T10:42:48.451Z,99.90
2023-04-24T10:48:00.554Z,99.90
2023-04-24T10:53:15.798Z,99.90
2023-04-24T10:58:22.597Z,99.90
2023-04-24T11:03:29.877Z,99.90
2023-04-24T11:08:37.803Z,99.90
2023-04-24T11:13:55.713Z,99.90
2023-04-24T11:19:03.794Z,99.90
2023-04-24T11:24:42.873Z,99.90
2023-04-24T11:30:04.664Z,99.90
2023-04-24T11:35:20.042Z,99.90
2023-04-24T11:40:26.620Z,99.90
2023-04-24T11:45:30.783Z,99.90
2023-04-24T11:50:32.720Z,99.90
2023-04-24T11:55:34.557Z,99.90
2023-04-24T12:00:36.623Z,99.90
2023-04-24T12:05:39.639Z,99.90
2023-04-24T12:10:41.517Z,99.90
2023-04-24T12:15:43.379Z,99.90
2023-04-24T12:20:45.194Z,99.90
2023-04-24T12:25:46.969Z,99.90
2023-04-24T12:30:49.964Z,99.90
2023-04-24T12:35:55.450Z,99.90
2023-04-24T12:41:11.478Z,99.90
2023-04-24T12:46:13.999Z,99.90
2023-04-24T12:51:17.169Z,99.90
2023-04-24T12:56:22.015Z,99.90
2023-04-24T13:01:23.875Z,99.90
2023-04-24T13:06:27.445Z,99.90
2023-04-24T13:11:29.302Z,99.90
2023-04-24T13:16:31.234Z,99.90
2023-04-24T13:21:33.298Z,99.90
2023-04-24T13:26:35.161Z,99.90
2023-04-24T13:31:37.058Z,99.90
2023-04-24T13:36:39.296Z,99.90
2023-04-24T13:41:41.240Z,99.90
2023-04-24T13:46:45.480Z,99.90
2023-04-24T13:51:47.961Z,99.90
2023-04-24T13:56:50.260Z,99.90
2023-04-24T14:01:52.243Z,99.90
2023-04-24T14:06:54.068Z,99.90
2023-04-24T14:11:55.931Z,99.90
2023-04-24T14:16:58.179Z,99.90
2023-04-24T14:22:01.124Z,99.90
2023-04-24T14:27:02.938Z,99.90
2023-04-24T14:32:04.781Z,99.90
2023-04-24T14:37:06.750Z,99.90
2023-04-24T14:42:08.628Z,99.90
2023-04-24T14:47:10.666Z,99.90
2023-04-24T14:52:12.665Z,99.90
2023-04-24T14:57:16.445Z,99.90
2023-04-24T15:02:20.968Z,99.90
2023-04-24T15:07:27.440Z,99.90
2023-04-24T15:12:31.929Z,99.90
2023-04-24T15:17:33.828Z,99.90
2023-04-24T15:22:35.954Z,99.90
2023-04-24T15:27:45.012Z,99.90
2023-04-24T15:32:47.079Z,99.90
2023-04-24T15:37:49.266Z,99.90
2023-04-24T15:42:51.151Z,99.90
2023-04-24T15:47:53.008Z,99.90
2023-04-24T15:52:57.886Z,99.90
2023-04-24T15:58:00.522Z,99.90
2023-04-24T16:03:03.144Z,99.90
2023-04-24T16:08:05.224Z,99.90
2023-04-24T16:13:07.410Z,99.90
2023-04-24T16:18:09.331Z,99.90
2023-04-24T16:23:11.418Z,99.90
2023-04-24T16:28:14.011Z,99.90
2023-04-24T16:33:15.997Z,99.90
2023-04-24T16:38:17.820Z,99.90
2023-04-24T16:43:19.679Z,99.90
2023-04-24T16:48:21.475Z,99.90
2023-04-24T16:53:23.489Z,99.90
2023-04-24T16:58:25.347Z,99.90
2023-04-24T17:03:27.304Z,99.90
2023-04-24T17:08:29.842Z,99.90
2023-04-24T17:13:31.652Z,99.90
2023-04-24T17:18:33.474Z,99.90
2023-04-24T17:23:35.332Z,99.90
2023-04-24T17:28:38.763Z,99.90
2023-04-24T17:33:45.033Z,99.90
2023-04-24T17:39:00.952Z,99.90
2023-04-24T17:44:03.533Z,99.90
2023-04-24T17:49:05.742Z,99.90
2023-04-24T17:54:07.667Z,99.90
2023-04-24T17:59:09.517Z,99.90
2023-04-24T18:04:11.722Z,99.90
2023-04-24T18:09:18.930Z,99.90
2023-04-24T18:14:21.064Z,99.90
2023-04-24T18:19:22.879Z,99.90
2023-04-24T18:24:24.670Z,99.90
2023-04-24T18:29:26.506Z,99.90
2023-04-24T18:34:28.341Z,99.90
2023-04-24T18:39:30.131Z,99.90
2023-04-24T18:44:32.011Z,99.90
2023-04-24T18:49:36.072Z,99.90
2023-04-24T18:54:37.943Z,99.90
2023-04-24T18:59:39.882Z,99.90
2023-04-24T19:04:41.837Z,99.90
2023-04-24T19:09:43.695Z,99.90
2023-04-24T19:14:46.113Z,99.90
2023-04-24T19:19:48.805Z,99.90
2023-04-24T19:24:50.723Z,99.90
2023-04-24T19:29:52.605Z,99.90
2023-04-24T19:34:54.505Z,99.90
2023-04-24T19:39:56.887Z,99.90
2023-04-24T19:44:58.752Z,99.90
2023-04-24T19:50:00.582Z,99.90
2023-04-24T19:55:02.478Z,99.90
2023-04-24T20:00:08.135Z,99.90
2023-04-24T20:05:10.853Z,99.90
2023-04-24T20:10:13.122Z,99.90
2023-04-24T20:15:14.927Z,99.90
2023-04-24T20:20:16.742Z,99.90
2023-04-24T20:25:18.624Z,99.90
2023-04-24T20:30:20.639Z,99.90
2023-04-24T20:35:22.557Z,99.90
2023-04-24T20:40:24.625Z,99.90
2023-04-24T20:45:26.461Z,99.90
2023-04-24T20:50:28.540Z,99.90
2023-04-24T20:55:30.517Z,99.90
2023-04-24T21:00:32.386Z,99.90
2023-04-24T21:05:34.236Z,99.90
2023-04-24T21:10:36.064Z,99.90
2023-04-24T21:15:38.145Z,99.90
2023-04-24T21:20:40.619Z,99.90
2023-04-24T21:25:42.662Z,99.90
2023-04-24T21:30:44.639Z,99.90
2023-04-24T21:35:46.587Z,99.90
2023-04-24T21:40:52.146Z,99.90
2023-04-24T21:45:54.049Z,99.90
2023-04-24T21:50:55.923Z,99.90
2023-04-24T21:55:57.849Z,99.90
2023-04-24T22:00:59.792Z,99.90
2023-04-24T22:06:01.948Z,99.90
2023-04-24T22:11:05.746Z,99.90
2023-04-24T22:16:13.726Z,99.90
2023-04-24T22:21:15.773Z,99.90
2023-04-24T22:26:17.736Z,99.90
2023-04-24T22:31:19.721Z,99.90
2023-04-24T22:36:21.821Z,99.90
2023-04-24T22:41:23.823Z,99.90
2023-04-24T22:46:25.777Z,99.90
2023-04-24T22:51:27.645Z,99.90
2023-04-24T22:56:29.517Z,99.90
2023-04-24T23:01:31.367Z,99.90
2023-04-24T23:06:33.219Z,99.90
2023-04-24T23:11:35.050Z,99.90
2023-04-24T23:16:37.755Z,99.90
2023-04-24T23:21:39.661Z,99.90
2023-04-24T23:26:41.552Z,99.90
2023-04-24T23:31:43.508Z,99.90
2023-04-24T23:36:48.340Z,99.90
2023-04-24T23:42:02.647Z,99.90
2023-04-24T23:47:04.426Z,99.90
2023-04-24T23:52:06.211Z,99.90
2023-04-24T23:57:08.928Z,99.90
